Time;durP1;ratioP1;P1;durP2;ratioP2;P2;SDS_P1;SDS_P2;PMS_P1;PMS_P2;Temp;Humidity;BMP_temperature;BMP_pressure;BME280_temperature;BME280_humidity;BME280_pressure;Samples;Min_cycle;Max_cycle;Signal;HPM_P1;HPM_P2
2021/04/10 00:00:29;;;;;;;48.75;31.95;;;2.90;64.30;;;;;;6312821;22;20033;-89
2021/04/10 00:02:54;;;;;;;50.20;30.38;;;3.00;64.70;;;;;;6338911;22;20006;-89
2021/04/10 00:05:24;;;;;;;47.47;29.23;;;3.00;64.40;;;;;;6338946;22;20001;-89
2021/04/10 00:07:51;;;;;;;44.03;26.30;;;3.00;64.30;;;;;;6312919;22;20010;-88
2021/04/10 00:10:18;;;;;;;47.80;27.98;;;3.00;64.10;;;;;;6340154;22;20086;-89
2021/04/10 00:12:44;;;;;;;49.10;26.92;;;3.00;64.10;;;;;;6319579;22;20063;-88
2021/04/10 00:15:14;;;;;;;49.92;29.75;;;3.00;64.40;;;;;;6360982;22;20002;-88
2021/04/10 00:17:40;;;;;;;51.42;33.10;;;3.00;64.90;;;;;;6335567;22;20032;-88
2021/04/10 00:20:08;;;;;;;49.15;31.02;;;3.00;65.30;;;;;;6335080;22;20018;-88
2021/04/10 00:22:34;;;;;;;47.58;28.35;;;3.00;65.50;;;;;;6361949;22;20006;-88
2021/04/10 00:24:59;;;;;;;47.28;26.27;;;3.00;65.30;;;;;;6339112;22;20321;-89
2021/04/10 00:27:25;;;;;;;40.58;25.58;;;2.90;65.50;;;;;;6340716;22;19995;-89
2021/04/10 00:29:51;;;;;;;40.85;23.75;;;2.90;65.20;;;;;;6313742;22;20013;-89
2021/04/10 00:32:16;;;;;;;36.25;22.45;;;2.80;65.20;;;;;;6339161;22;20476;-89
2021/04/10 00:34:42;;;;;;;41.10;24.73;;;2.80;65.10;;;;;;6339298;22;20436;-88
2021/04/10 00:37:07;;;;;;;50.65;26.02;;;2.80;65.20;;;;;;6339635;22;20003;-88
2021/04/10 00:39:33;;;;;;;41.08;21.30;;;2.70;65.20;;;;;;6338653;22;20011;-88
2021/04/10 00:41:59;;;;;;;40.63;23.25;;;2.70;65.30;;;;;;6339277;22;20029;-89
2021/04/10 00:44:24;;;;;;;42.58;25.45;;;2.70;65.40;;;;;;6339614;22;20006;-89
2021/04/10 00:46:50;;;;;;;38.42;23.50;;;2.70;65.50;;;;;;6338540;22;19998;-89
2021/04/10 00:49:16;;;;;;;38.47;22.45;;;2.60;65.40;;;;;;6338173;22;19995;-89
2021/04/10 00:51:41;;;;;;;37.25;23.33;;;2.60;65.70;;;;;;6338534;22;19999;-89
2021/04/10 00:54:07;;;;;;;37.25;24.08;;;2.60;65.70;;;;;;6340067;22;20074;-89
2021/04/10 00:56:33;;;;;;;38.50;22.17;;;2.60;65.80;;;;;;6338535;22;20003;-88
2021/04/10 00:58:58;;;;;;;34.08;20.85;;;2.60;65.90;;;;;;6338842;22;20105;-89
2021/04/10 01:01:25;;;;;;;42.35;24.73;;;2.60;65.90;;;;;;6338324;22;20438;-89
2021/04/10 01:03:51;;;;;;;36.30;23.55;;;2.60;65.90;;;;;;6338372;22;19999;-88
2021/04/10 01:06:17;;;;;;;41.20;23.33;;;2.60;65.90;;;;;;6338347;22;19995;-88
2021/04/10 01:08:43;;;;;;;36.67;22.30;;;2.60;65.90;;;;;;6339964;22;19999;-88
2021/04/10 01:11:27;;;;;;;29.27;19.10;;;2.60;66.00;;;;;;6339073;22;20065;-89
2021/04/10 01:14:15;;;;;;;33.28;19.60;;;2.60;66.20;;;;;;6312117;22;20010;-89
2021/04/10 01:16:52;;;;;;;27.90;18.92;;;2.60;66.30;;;;;;6313049;22;20418;-89
2021/04/10 01:19:33;;;;;;;31.65;19.40;;;2.50;66.40;;;;;;6339787;22;20017;-89
2021/04/10 01:22:11;;;;;;;27.88;17.33;;;2.50;66.50;;;;;;6340323;22;19995;-89
2021/04/10 01:25:06;;;;;;;30.95;20.33;;;2.50;66.50;;;;;;6313013;22;20003;-89
2021/04/10 01:27:39;;;;;;;38.92;21.98;;;2.50;66.50;;;;;;6340198;22;19999;-88
2021/04/10 01:30:14;;;;;;;43.65;25.90;;;2.50;66.50;;;;;;6312139;22;20025;-89
2021/04/10 01:32:52;;;;;;;38.60;24.00;;;2.50;66.60;;;;;;6313200;22;20003;-89
2021/04/10 01:35:21;;;;;;;38.45;23.73;;;2.40;66.50;;;;;;6312097;22;20077;-89
2021/04/10 01:37:57;;;;;;;39.20;26.48;;;2.30;66.50;;;;;;6339426;22;19995;-89
2021/04/10 01:40:24;;;;;;;45.80;27.05;;;2.30;66.60;;;;;;6312066;22;19999;-89
2021/04/10 01:42:51;;;;;;;57.47;32.47;;;2.20;66.60;;;;;;6312197;22;20007;-89
2021/04/10 01:45:18;;;;;;;38.88;25.15;;;2.20;67.00;;;;;;6312130;22;20005;-89
2021/04/10 01:47:46;;;;;;;44.00;26.60;;;2.20;67.10;;;;;;6312498;22;20003;-89
2021/04/10 01:50:12;;;;;;;36.63;23.00;;;2.10;67.10;;;;;;6313543;22;20030;-89
2021/04/10 01:52:40;;;;;;;42.05;26.13;;;2.10;67.30;;;;;;6330606;22;19999;-88
2021/04/10 01:55:06;;;;;;;40.08;22.83;;;2.10;67.40;;;;;;6335624;22;20003;-89
2021/04/10 01:57:32;;;;;;;42.38;26.98;;;2.10;67.40;;;;;;6336051;22;19999;-89
2021/04/10 02:00:00;;;;;;;39.72;23.65;;;2.10;67.50;;;;;;6337932;22;19983;-87
2021/04/10 02:02:26;;;;;;;38.78;22.65;;;2.20;67.80;;;;;;6332848;22;20082;-88
2021/04/10 02:04:53;;;;;;;38.83;23.92;;;2.20;67.80;;;;;;6341673;22;20002;-89
2021/04/10 02:07:25;;;;;;;35.88;22.75;;;2.20;67.80;;;;;;6314504;22;20006;-89
2021/04/10 02:09:53;;;;;;;34.90;23.70;;;2.20;67.70;;;;;;6313746;22;20149;-89
2021/04/10 02:12:22;;;;;;;34.00;21.85;;;2.20;67.70;;;;;;6313941;22;20002;-88
2021/04/10 02:14:48;;;;;;;38.17;22.92;;;2.10;67.70;;;;;;6341417;22;20003;-89
2021/04/10 02:17:18;;;;;;;43.47;26.05;;;2.10;67.70;;;;;;6313787;22;20438;-89
2021/04/10 02:19:45;;;;;;;41.50;25.67;;;2.10;68.30;;;;;;6314338;22;20014;-89
2021/04/10 02:22:12;;;;;;;40.25;25.52;;;2.10;68.30;;;;;;6341400;22;19999;-89
2021/04/10 02:24:38;;;;;;;45.20;28.25;;;2.10;68.50;;;;;;6313796;22;20081;-89
2021/04/10 02:27:05;;;;;;;41.67;26.10;;;2.10;68.80;;;;;;6340855;22;19998;-89
2021/04/10 02:29:31;;;;;;;38.30;24.85;;;2.00;69.00;;;;;;6313709;22;19999;-89
2021/04/10 02:32:08;;;;;;;34.80;22.55;;;2.00;69.30;;;;;;6314016;22;20041;-88
2021/04/10 02:34:43;;;;;;;38.47;23.95;;;2.00;69.30;;;;;;6314219;22;20068;-89
2021/04/10 02:37:09;;;;;;;30.92;20.08;;;1.90;69.40;;;;;;6314014;22;20003;-89
2021/04/10 02:39:37;;;;;;;34.88;19.95;;;1.90;68.90;;;;;;6341069;22;20049;-89
2021/04/10 02:42:04;;;;;;;30.85;19.42;;;1.90;68.90;;;;;;6314220;22;20315;-89
2021/04/10 02:44:44;;;;;;;28.02;18.63;;;1.90;68.90;;;;;;6314191;22;20414;-89
2021/04/10 02:47:12;;;;;;;30.65;17.95;;;1.80;68.90;;;;;;6313562;22;20003;-89
2021/04/10 02:49:42;;;;;;;27.13;16.98;;;1.80;69.00;;;;;;6313548;22;19998;-89
2021/04/10 02:52:10;;;;;;;29.45;19.15;;;1.80;69.00;;;;;;6314282;22;20311;-89
2021/04/10 02:54:43;;;;;;;30.10;19.80;;;1.70;69.20;;;;;;6313480;22;20002;-89
2021/04/10 02:57:12;;;;;;;30.98;19.70;;;1.70;69.30;;;;;;6341242;22;20010;-89
2021/04/10 02:59:40;;;;;;;28.45;18.77;;;1.70;69.30;;;;;;6313513;22;20021;-88
2021/04/10 03:02:09;;;;;;;28.48;19.60;;;1.70;69.30;;;;;;6314345;22;19999;-89
2021/04/10 03:04:35;;;;;;;28.98;17.70;;;1.70;69.70;;;;;;6314123;22;20047;-89
2021/04/10 03:07:04;;;;;;;35.75;22.10;;;1.70;69.60;;;;;;6340696;22;20003;-88
2021/04/10 03:09:30;;;;;;;37.35;21.83;;;1.70;69.60;;;;;;6314981;22;20310;-89
2021/04/10 03:11:56;;;;;;;29.45;19.73;;;1.70;69.60;;;;;;6314008;22;20003;-89
2021/04/10 03:14:22;;;;;;;31.90;19.25;;;1.70;69.80;;;;;;6339523;22;20009;-89
2021/04/10 03:16:49;;;;;;;31.15;18.65;;;1.70;69.80;;;;;;6313822;22;20006;-88
2021/04/10 03:19:15;;;;;;;36.08;22.92;;;1.70;69.80;;;;;;6340738;22;20035;-89
2021/04/10 03:21:41;;;;;;;41.55;23.98;;;1.70;69.80;;;;;;6313952;22;20407;-89
2021/04/10 03:24:08;;;;;;;39.13;26.27;;;1.70;69.90;;;;;;6339450;22;20083;-89
2021/04/10 03:26:34;;;;;;;38.85;26.45;;;1.80;70.60;;;;;;6313545;22;19995;-89
2021/04/10 03:29:02;;;;;;;37.72;26.73;;;1.80;70.40;;;;;;6316049;22;20022;-87
2021/04/10 03:31:29;;;;;;;39.45;27.83;;;1.80;70.50;;;;;;6333005;22;19999;-89
2021/04/10 03:33:55;;;;;;;42.88;26.85;;;1.80;70.40;;;;;;6336062;22;19999;-89
2021/04/10 03:36:21;;;;;;;41.50;28.08;;;1.80;70.20;;;;;;6335848;22;20005;-88
2021/04/10 03:38:47;;;;;;;34.88;22.40;;;1.90;70.40;;;;;;6336459;22;20002;-88
2021/04/10 03:41:13;;;;;;;37.70;21.73;;;1.90;70.30;;;;;;6343874;22;20006;-89
2021/04/10 03:43:39;;;;;;;30.10;21.15;;;2.00;70.20;;;;;;6339558;22;20082;-89
2021/04/10 03:46:05;;;;;;;35.97;21.58;;;2.00;70.40;;;;;;6339251;22;19999;-89
2021/04/10 03:48:31;;;;;;;31.58;22.15;;;2.10;70.30;;;;;;6313029;22;20002;-89
2021/04/10 03:50:57;;;;;;;38.67;25.25;;;2.10;70.20;;;;;;6312943;22;20003;-89
2021/04/10 03:53:23;;;;;;;28.65;20.05;;;2.20;70.10;;;;;;6313292;22;19999;-88
2021/04/10 03:55:49;;;;;;;29.85;18.95;;;2.20;70.00;;;;;;6313032;22;20045;-89
2021/04/10 03:58:15;;;;;;;34.70;21.15;;;2.30;69.90;;;;;;6338984;22;20006;-89
2021/04/10 04:00:41;;;;;;;28.38;18.60;;;2.40;70.00;;;;;;6338985;22;20011;-89
2021/04/10 04:03:07;;;;;;;35.25;23.17;;;2.50;70.00;;;;;;6312816;22;20002;-89
2021/04/10 04:05:33;;;;;;;44.53;24.98;;;2.60;69.80;;;;;;6338935;22;19998;-88
2021/04/10 04:07:59;;;;;;;39.22;25.30;;;2.60;69.60;;;;;;6312760;22;20034;-89
2021/04/10 04:10:24;;;;;;;36.15;23.45;;;2.70;69.50;;;;;;6338845;22;20087;-89
2021/04/10 04:12:50;;;;;;;33.38;22.85;;;2.70;69.40;;;;;;6340432;22;20006;-88
2021/04/10 04:15:16;;;;;;;38.50;22.75;;;2.80;69.40;;;;;;6312822;22;20052;-89
2021/04/10 04:17:42;;;;;;;37.85;22.60;;;2.90;69.30;;;;;;6339129;22;20086;-89
2021/04/10 04:20:08;;;;;;;39.47;24.17;;;2.90;69.20;;;;;;6338198;22;20423;-89
2021/04/10 04:22:34;;;;;;;37.17;24.25;;;3.00;69.10;;;;;;6312536;22;20023;-89
2021/04/10 04:25:00;;;;;;;35.42;21.80;;;3.10;69.10;;;;;;6338362;22;20010;-89
2021/04/10 04:27:25;;;;;;;37.30;23.63;;;3.20;69.00;;;;;;6340302;22;19995;-89
2021/04/10 04:29:54;;;;;;;40.47;23.23;;;3.20;69.40;;;;;;6339560;22;20029;-89
2021/04/10 04:32:20;;;;;;;42.83;24.70;;;3.30;68.80;;;;;;6312931;22;20007;-89
2021/04/10 04:34:47;;;;;;;37.15;24.15;;;3.40;68.80;;;;;;6313772;22;19999;-89
2021/04/10 04:37:12;;;;;;;35.95;21.25;;;3.50;68.70;;;;;;6314369;22;20003;-89
2021/04/10 04:39:38;;;;;;;36.63;23.05;;;3.60;68.70;;;;;;6342861;22;20422;-89
2021/04/10 04:42:04;;;;;;;35.85;23.70;;;3.70;68.40;;;;;;6343623;22;19995;-89
2021/04/10 04:44:29;;;;;;;38.30;24.67;;;3.80;68.30;;;;;;6345313;22;20022;-89
2021/04/10 04:46:55;;;;;;;44.97;28.02;;;3.90;68.00;;;;;;6341309;22;19991;-89
2021/04/10 04:49:21;;;;;;;43.30;26.85;;;4.00;67.70;;;;;;6339205;22;20044;-89
2021/04/10 04:51:47;;;;;;;34.75;23.63;;;4.10;67.50;;;;;;6339805;22;19998;-89
2021/04/10 04:54:12;;;;;;;32.10;21.45;;;4.10;67.30;;;;;;6338144;22;20304;-89
2021/04/10 04:56:38;;;;;;;33.63;21.95;;;4.20;67.20;;;;;;6338546;22;20041;-89
2021/04/10 04:59:04;;;;;;;34.55;21.63;;;4.30;67.10;;;;;;6338193;22;19999;-89
2021/04/10 05:01:30;;;;;;;30.33;19.75;;;4.40;66.90;;;;;;6338552;22;20415;-89
2021/04/10 05:03:55;;;;;;;37.67;20.38;;;4.50;66.80;;;;;;6338369;22;20330;-89
2021/04/10 05:06:21;;;;;;;31.50;18.83;;;4.60;66.70;;;;;;6338389;22;19999;-89
2021/04/10 05:08:47;;;;;;;31.40;19.80;;;4.70;66.60;;;;;;6316277;22;20003;-89
2021/04/10 05:11:14;;;;;;;30.13;19.70;;;4.80;66.40;;;;;;6359100;22;20037;-88
2021/04/10 05:13:40;;;;;;;27.63;18.67;;;4.90;66.20;;;;;;6362205;22;20003;-89
2021/04/10 05:16:07;;;;;;;32.13;20.35;;;5.10;66.00;;;;;;6338540;22;19994;-89
2021/04/10 05:18:32;;;;;;;28.42;17.92;;;5.20;65.80;;;;;;6366693;22;20011;-87
2021/04/10 05:20:58;;;;;;;27.42;17.85;;;5.30;65.70;;;;;;6348495;22;20028;-89
2021/04/10 05:23:24;;;;;;;24.50;18.02;;;5.40;65.50;;;;;;6340458;22;20002;-88
2021/04/10 05:25:51;;;;;;;30.60;17.63;;;5.50;65.20;;;;;;6315078;22;20014;-90
2021/04/10 05:28:17;;;;;;;25.88;17.05;;;5.70;65.10;;;;;;6316618;22;20006;-89
2021/04/10 05:30:44;;;;;;;24.00;16.92;;;5.80;64.90;;;;;;6316677;22;20007;-89
2021/04/10 05:33:10;;;;;;;29.92;18.27;;;6.00;64.70;;;;;;6317348;22;20031;-88
2021/04/10 05:35:36;;;;;;;24.00;15.68;;;6.10;64.40;;;;;;6315322;22;20003;-89
2021/04/10 05:38:02;;;;;;;24.92;17.73;;;6.30;64.30;;;;;;6313982;22;20037;-89
2021/04/10 05:40:28;;;;;;;23.90;15.65;;;6.40;64.10;;;;;;6341621;22;20086;-89
2021/04/10 05:42:54;;;;;;;26.05;17.30;;;6.50;63.80;;;;;;6340125;22;20033;-89
2021/04/10 05:45:19;;;;;;;24.63;15.77;;;6.70;63.60;;;;;;6340497;22;20083;-89
2021/04/10 05:47:45;;;;;;;25.83;17.35;;;6.80;63.30;;;;;;6340404;22;19995;-89
2021/04/10 05:50:11;;;;;;;22.67;16.15;;;7.00;62.80;;;;;;6340401;22;20014;-89
2021/04/10 05:52:38;;;;;;;23.15;16.25;;;7.20;62.50;;;;;;6340090;22;19999;-89
2021/04/10 05:55:05;;;;;;;25.58;16.67;;;7.40;62.10;;;;;;6313799;22;20003;-89
2021/04/10 05:57:31;;;;;;;25.55;17.08;;;7.50;61.60;;;;;;6314797;22;20422;-89
2021/04/10 05:59:57;;;;;;;31.63;19.40;;;7.70;61.30;;;;;;6341564;22;20030;-89
2021/04/10 06:02:23;;;;;;;25.33;16.30;;;7.80;60.90;;;;;;6313824;22;20406;-89
2021/04/10 06:04:48;;;;;;;27.92;19.00;;;7.90;60.50;;;;;;6341391;22;20420;-89
2021/04/10 06:07:14;;;;;;;25.63;17.38;;;8.10;59.90;;;;;;6340259;22;20030;-89
2021/04/10 06:09:40;;;;;;;28.15;18.17;;;8.20;59.70;;;;;;6339373;22;20015;-91
2021/04/10 06:12:06;;;;;;;23.15;15.75;;;8.30;59.30;;;;;;6339924;22;19999;-90
2021/04/10 06:14:31;;;;;;;29.20;17.23;;;8.50;59.10;;;;;;6339994;22;20299;-90
2021/04/10 06:16:58;;;;;;;23.67;16.20;;;8.60;58.80;;;;;;6339978;22;19999;-89
2021/04/10 06:19:24;;;;;;;24.10;15.65;;;8.70;58.40;;;;;;6313181;22;20029;-89
2021/04/10 06:21:49;;;;;;;21.10;14.23;;;8.90;57.40;;;;;;6341843;22;20006;-89
2021/04/10 06:24:16;;;;;;;21.70;14.45;;;9.10;57.20;;;;;;6341881;22;20048;-89
2021/04/10 06:26:42;;;;;;;23.10;15.50;;;9.20;56.80;;;;;;6313671;22;19999;-89
2021/04/10 06:29:10;;;;;;;25.52;16.02;;;9.40;56.40;;;;;;6313934;22;20292;-89
2021/04/10 06:31:35;;;;;;;24.40;14.60;;;9.50;56.10;;;;;;6313457;22;20007;-89
2021/04/10 06:34:02;;;;;;;19.00;13.30;;;9.70;55.40;;;;;;6339559;22;20124;-89
2021/04/10 06:36:27;;;;;;;19.80;13.50;;;9.80;54.90;;;;;;6314106;22;20003;-89
2021/04/10 06:38:54;;;;;;;21.25;13.30;;;10.00;54.30;;;;;;6339215;22;20086;-89
2021/04/10 06:41:21;;;;;;;15.15;10.48;;;10.10;54.20;;;;;;6313228;22;20445;-89
2021/04/10 06:43:47;;;;;;;20.95;12.25;;;10.20;53.70;;;;;;6313455;22;20017;-90
2021/04/10 06:46:13;;;;;;;17.70;11.98;;;10.30;53.20;;;;;;6313459;22;20026;-88
2021/04/10 06:48:40;;;;;;;20.73;12.65;;;10.50;53.00;;;;;;6313071;22;20009;-90
2021/04/10 06:51:07;;;;;;;23.63;12.77;;;10.60;53.10;;;;;;6313313;22;20096;-90
2021/04/10 06:53:37;;;;;;;15.73;11.38;;;10.70;52.80;;;;;;6314356;22;19995;-89
2021/04/10 06:56:05;;;;;;;21.45;13.88;;;10.80;52.20;;;;;;6316424;22;20006;-89
2021/04/10 06:58:47;;;;;;;22.90;14.77;;;10.90;52.10;;;;;;6318204;22;20022;-89
2021/04/10 07:01:15;;;;;;;18.50;12.88;;;11.00;51.30;;;;;;6314690;22;20003;-90
2021/04/10 07:03:44;;;;;;;16.77;11.57;;;11.10;51.00;;;;;;6329990;22;20050;-90
2021/04/10 07:06:11;;;;;;;16.23;12.32;;;11.20;51.10;;;;;;6335967;22;20026;-91
2021/04/10 07:08:37;;;;;;;18.65;12.85;;;11.30;50.90;;;;;;6337706;22;20009;-89
2021/04/10 07:11:04;;;;;;;15.80;11.90;;;11.40;50.80;;;;;;6365573;22;20014;-91
2021/04/10 07:13:31;;;;;;;17.00;11.32;;;11.50;50.20;;;;;;6336760;22;20003;-89
2021/04/10 07:16:01;;;;;;;17.63;12.15;;;11.60;50.40;;;;;;6345062;22;20006;-89
2021/04/10 07:18:28;;;;;;;23.00;12.00;;;11.70;50.20;;;;;;6313810;22;19999;-89
2021/04/10 07:21:11;;;;;;;19.80;12.05;;;11.70;49.90;;;;;;6314407;22;20011;-89
2021/04/10 07:23:44;;;;;;;17.08;11.93;;;11.80;49.00;;;;;;6316302;22;19999;-89
2021/04/10 07:26:10;;;;;;;19.80;12.55;;;11.80;49.50;;;;;;6314110;22;20028;-89
2021/04/10 07:28:36;;;;;;;20.38;14.15;;;11.90;49.40;;;;;;6340002;22;19995;-90
2021/04/10 07:31:08;;;;;;;23.30;15.75;;;11.90;48.60;;;;;;6313836;22;20003;-89
2021/04/10 07:33:39;;;;;;;20.63;14.13;;;11.90;48.20;;;;;;6314347;22;20077;-89
2021/04/10 07:36:08;;;;;;;17.20;12.00;;;11.80;48.00;;;;;;6312762;22;20109;-89
2021/04/10 07:38:36;;;;;;;22.73;14.35;;;11.70;47.60;;;;;;6313537;22;20083;-90
2021/04/10 07:41:16;;;;;;;23.95;14.45;;;11.70;47.30;;;;;;6313194;22;20092;-90
2021/04/10 07:43:43;;;;;;;29.17;16.23;;;11.70;47.40;;;;;;6313752;22;19999;-90
2021/04/10 07:46:14;;;;;;;26.58;15.55;;;11.70;47.50;;;;;;6313602;22;19999;-90
2021/04/10 07:49:07;;;;;;;26.38;15.60;;;11.80;47.20;;;;;;6314051;22;20010;-90
2021/04/10 07:51:54;;;;;;;22.40;12.77;;;11.90;47.00;;;;;;6314114;22;20295;-90
2021/04/10 07:54:28;;;;;;;22.48;13.50;;;12.00;46.80;;;;;;6314122;22;20322;-90
2021/04/10 07:56:55;;;;;;;;;;;12.00;46.10;;;;;;6313434;22;19999;-90
2021/04/10 07:59:20;;;;;;;20.38;12.75;;;12.00;44.20;;;;;;6312772;22;20339;-90
2021/04/10 08:01:46;;;;;;;28.67;16.50;;;12.00;46.20;;;;;;6338844;22;20011;-89
2021/04/10 08:04:14;;;;;;;19.70;12.93;;;12.00;46.10;;;;;;6339215;22;19995;-90
2021/04/10 08:06:53;;;;;;;14.65;10.90;;;12.00;45.60;;;;;;6312994;22;20291;-90
2021/04/10 08:09:37;;;;;;;27.65;16.38;;;11.80;45.00;;;;;;6313195;22;20025;-90
2021/04/10 08:12:11;;;;;;;20.98;14.02;;;11.70;43.60;;;;;;6340860;22;20070;-90
2021/04/10 08:14:40;;;;;;;20.15;14.20;;;11.70;45.30;;;;;;6312647;22;20023;-90
2021/04/10 08:17:06;;;;;;;15.60;11.45;;;11.50;43.90;;;;;;6313322;22;20002;-90
2021/04/10 08:19:33;;;;;;;20.10;10.27;;;11.40;44.90;;;;;;6338437;22;20114;-90
2021/04/10 08:21:59;;;;;;;17.10;10.10;;;11.30;45.20;;;;;;6312348;22;20082;-90
2021/04/10 08:24:31;;;;;;;15.50;11.30;;;11.30;44.90;;;;;;6338802;22;20026;-90
2021/04/10 08:27:06;;;;;;;20.50;13.95;;;11.30;45.20;;;;;;6312260;22;20033;-90
2021/04/10 08:29:33;;;;;;;25.73;17.08;;;11.20;46.40;;;;;;6339939;22;20452;-90
2021/04/10 08:31:59;;;;;;;23.20;16.52;;;11.30;47.10;;;;;;6339754;22;19999;-90
2021/04/10 08:34:26;;;;;;;27.48;17.25;;;11.40;47.80;;;;;;6338219;22;20002;-89
2021/04/10 08:37:07;;;;;;;22.10;14.90;;;11.50;48.60;;;;;;6340316;22;19995;-89
2021/04/10 08:39:41;;;;;;;22.48;18.08;;;11.70;48.50;;;;;;6312709;22;20025;-90
2021/04/10 08:42:08;;;;;;;26.75;17.20;;;11.90;47.90;;;;;;6312936;22;20029;-90
2021/04/10 08:44:35;;;;;;;25.73;16.65;;;12.10;47.90;;;;;;6340059;22;19995;-89
2021/04/10 08:47:02;;;;;;;21.17;14.43;;;12.40;47.80;;;;;;6339084;22;20007;-89
2021/04/10 08:49:34;;;;;;;21.40;15.73;;;12.60;47.60;;;;;;6312397;22;20082;-90
2021/04/10 08:52:06;;;;;;;23.33;16.20;;;12.80;46.40;;;;;;6312635;22;20002;-90
2021/04/10 08:54:34;;;;;;;18.98;15.50;;;13.00;47.10;;;;;;6312630;22;20032;-90
2021/04/10 08:57:06;;;;;;;21.23;14.85;;;13.00;46.90;;;;;;6313311;22;20003;-90
2021/04/10 08:59:39;;;;;;;19.10;14.13;;;13.00;47.30;;;;;;6324926;22;20015;-89
2021/04/10 09:02:11;;;;;;;19.23;13.98;;;13.10;46.10;;;;;;6337419;22;20002;-90
2021/04/10 09:04:55;;;;;;;17.00;14.35;;;13.10;46.00;;;;;;6338996;22;20006;-92
2021/04/10 09:07:43;;;;;;;17.98;13.23;;;13.10;46.40;;;;;;6339383;22;20010;-90
2021/04/10 09:10:10;;;;;;;18.73;13.82;;;13.20;47.40;;;;;;6339971;22;20013;-89
2021/04/10 09:12:36;;;;;;;17.10;12.27;;;13.20;47.20;;;;;;6325459;22;20014;-89
2021/04/10 09:15:08;;;;;;;17.70;13.32;;;13.40;47.10;;;;;;6314403;22;19998;-90
2021/04/10 09:17:55;;;;;;;19.90;14.77;;;13.40;46.70;;;;;;6313329;22;20009;-89
2021/04/10 09:20:43;;;;;;;20.33;15.55;;;13.50;45.90;;;;;;6340527;22;20082;-90
2021/04/10 09:23:22;;;;;;;20.80;16.02;;;13.30;44.70;;;;;;6313414;22;20322;-89
2021/04/10 09:26:14;;;;;;;19.10;13.45;;;13.00;45.60;;;;;;6312726;22;19995;-89
2021/04/10 09:28:55;;;;;;;19.02;11.45;;;12.90;45.90;;;;;;6319653;22;20038;-89
2021/04/10 09:31:41;;;;;;;14.70;10.15;;;13.00;45.90;;;;;;6340411;22;20024;-90
2021/04/10 09:34:46;;;;;;;10.43;8.07;;;13.20;45.00;;;;;;6339394;22;20049;-89
2021/04/10 09:37:20;;;;;;;;;;;13.30;44.90;;;;;;6333331;22;20445;-90
2021/04/10 09:39:54;;;;;;;;;;;13.40;43.60;;;;;;6312660;22;20271;-89
2021/04/10 09:42:38;;;;;;;11.37;9.03;;;13.50;43.80;;;;;;6312133;22;19902;-89
2021/04/10 09:45:17;;;;;;;14.63;10.70;;;13.60;42.50;;;;;;6339452;22;19995;-89
2021/04/10 09:47:59;;;;;;;14.00;8.93;;;13.70;44.30;;;;;;6312462;22;19999;-90
2021/04/10 09:50:41;;;;;;;20.85;8.98;;;13.90;43.60;;;;;;6312055;22;20010;-89
2021/04/10 09:53:11;;;;;;;11.18;7.68;;;14.10;43.50;;;;;;6312350;22;20002;-89
2021/04/10 09:55:39;;;;;;;9.40;7.43;;;14.10;42.80;;;;;;6312370;22;20445;-89
2021/04/10 09:58:17;;;;;;;10.02;8.23;;;14.20;42.50;;;;;;6311707;22;20003;-89
2021/04/10 10:00:44;;;;;;;9.48;7.70;;;14.20;41.40;;;;;;6312142;22;20058;-90
2021/04/10 10:03:12;;;;;;;11.95;8.60;;;14.20;42.00;;;;;;6312317;22;20026;-89
2021/04/10 10:05:43;;;;;;;12.85;8.18;;;14.20;42.60;;;;;;6313200;22;20026;-89
2021/04/10 10:08:14;;;;;;;10.55;7.43;;;14.10;42.20;;;;;;6312657;22;19995;-89
2021/04/10 10:10:44;;;;;;;11.00;7.30;;;14.10;41.80;;;;;;6311845;22;20021;-90
2021/04/10 10:13:12;;;;;;;12.75;8.05;;;14.10;41.90;;;;;;6339667;22;20032;-89
2021/04/10 10:15:39;;;;;;;11.65;7.10;;;14.20;42.60;;;;;;6312564;22;20034;-89
2021/04/10 10:18:25;;;;;;;10.68;7.72;;;14.20;41.70;;;;;;6311545;22;20418;-89
2021/04/10 10:20:59;;;;;;;10.90;6.63;;;14.20;42.30;;;;;;6311034;22;20457;-89
2021/04/10 10:23:40;;;;;;;8.93;6.95;;;14.30;41.60;;;;;;6313291;22;19999;-89
2021/04/10 10:26:14;;;;;;;8.38;6.57;;;14.40;41.50;;;;;;6312712;22;20089;-90
2021/04/10 10:28:45;;;;;;;8.95;6.50;;;14.30;41.20;;;;;;6313544;22;20445;-90
2021/04/10 10:31:13;;;;;;;10.02;7.50;;;14.30;41.10;;;;;;6314245;22;20002;-90
2021/04/10 10:33:40;;;;;;;8.38;6.65;;;14.40;41.10;;;;;;6341590;22;20055;-89
2021/04/10 10:36:07;;;;;;;9.30;5.88;;;14.30;40.60;;;;;;6340651;22;19999;-90
2021/04/10 10:38:35;;;;;;;7.60;6.10;;;14.30;40.90;;;;;;6313251;22;20002;-89
2021/04/10 10:41:03;;;;;;;10.30;7.40;;;14.20;40.90;;;;;;6313605;22;20010;-89
2021/04/10 10:43:29;;;;;;;7.55;6.53;;;14.30;40.70;;;;;;6313606;22;20082;-90
2021/04/10 10:46:00;;;;;;;7.45;5.57;;;14.30;40.10;;;;;;6314925;22;20086;-90
2021/04/10 10:48:50;;;;;;;8.45;6.20;;;14.30;40.40;;;;;;6326695;22;20010;-89
2021/04/10 10:51:27;;;;;;;8.02;5.80;;;14.40;40.50;;;;;;6366618;22;19987;-89
2021/04/10 10:53:56;;;;;;;8.07;5.93;;;14.50;40.50;;;;;;6308690;22;19991;-89
2021/04/10 10:56:28;;;;;;;11.88;6.30;;;14.50;39.90;;;;;;6366845;22;20003;-88
2021/04/10 10:58:57;;;;;;;12.40;6.13;;;14.60;39.90;;;;;;6339518;22;20034;-88
2021/04/10 11:01:31;;;;;;;8.10;5.90;;;14.50;39.10;;;;;;6345806;22;20003;-89
2021/04/10 11:04:18;;;;;;;6.80;5.47;;;14.50;38.50;;;;;;6316456;22;20006;-89
2021/04/10 11:06:49;;;;;;;5.68;4.82;;;14.40;38.10;;;;;;6343133;22;20002;-88
2021/04/10 11:09:25;;;;;;;7.38;6.07;;;14.30;38.10;;;;;;6314141;22;20364;-89
2021/04/10 11:11:54;;;;;;;5.90;4.07;;;14.30;38.50;;;;;;6313072;22;20018;-90
2021/04/10 11:14:25;;;;;;;4.90;3.80;;;14.30;38.40;;;;;;6313629;22;20009;-90
2021/04/10 11:16:54;;;;;;;5.28;4.45;;;14.40;38.60;;;;;;6341641;22;20075;-89
2021/04/10 11:19:34;;;;;;;5.78;3.85;;;14.40;38.50;;;;;;6314028;22;20326;-89
2021/04/10 11:22:02;;;;;;;4.90;4.10;;;14.50;38.30;;;;;;6314139;22;20044;-90
2021/04/10 11:24:43;;;;;;;5.57;4.25;;;14.50;37.60;;;;;;6313081;22;19998;-90
2021/04/10 11:27:17;;;;;;;5.50;3.92;;;14.50;37.80;;;;;;6313930;22;20005;-90
2021/04/10 11:29:59;;;;;;;6.60;4.53;;;14.60;37.30;;;;;;6313428;22;20074;-89
2021/04/10 11:32:40;;;;;;;4.78;3.72;;;14.50;37.40;;;;;;6312447;22;20021;-89
2021/04/10 11:35:20;;;;;;;4.70;3.97;;;14.50;38.10;;;;;;6314610;22;19998;-89
2021/04/10 11:38:04;;;;;;;5.00;4.25;;;14.60;37.80;;;;;;6320013;22;20003;-89
2021/04/10 11:40:33;;;;;;;5.05;4.47;;;14.70;37.20;;;;;;6322312;22;20013;-89
2021/04/10 11:43:01;;;;;;;4.47;4.07;;;14.60;37.80;;;;;;6352392;22;20299;-89
2021/04/10 11:45:33;;;;;;;6.88;4.97;;;14.60;36.90;;;;;;6319496;22;20007;-88
2021/04/10 11:48:06;;;;;;;5.63;4.65;;;14.60;37.30;;;;;;6318888;22;20349;-89
2021/04/10 11:50:45;;;;;;;4.60;3.90;;;14.60;37.50;;;;;;6314496;22;20328;-88
2021/04/10 11:53:15;;;;;;;5.18;4.40;;;14.60;37.70;;;;;;6313006;22;20007;-89
2021/04/10 11:55:40;;;;;;;5.80;5.20;;;14.60;37.80;;;;;;6313050;22;20006;-89
2021/04/10 11:58:06;;;;;;;5.93;4.78;;;14.60;37.70;;;;;;6312970;22;20054;-88
2021/04/10 12:00:32;;;;;;;6.22;4.97;;;14.60;37.90;;;;;;6340429;22;20030;-88
2021/04/10 12:03:10;;;;;;;5.68;5.07;;;14.60;37.80;;;;;;6312331;22;20330;-89
2021/04/10 12:05:39;;;;;;;7.47;5.28;;;14.60;37.50;;;;;;6312417;22;20167;-89
2021/04/10 12:08:28;;;;;;;4.78;4.28;;;14.50;37.90;;;;;;6311999;22;19998;-88
2021/04/10 12:10:56;;;;;;;5.35;4.57;;;14.50;36.30;;;;;;6312657;22;20014;-88
2021/04/10 12:13:23;;;;;;;7.95;6.05;;;14.40;37.40;;;;;;6312253;22;20074;-88
2021/04/10 12:16:01;;;;;;;6.70;5.00;;;14.40;37.40;;;;;;6311181;22;20057;-90
2021/04/10 12:18:34;;;;;;;4.97;4.25;;;14.40;37.10;;;;;;6285829;22;20041;-88
2021/04/10 12:21:00;;;;;;;5.90;4.78;;;14.50;37.90;;;;;;6286717;22;20087;-88
2021/04/10 12:23:25;;;;;;;6.68;5.32;;;14.50;37.90;;;;;;6312098;22;20003;-88
2021/04/10 12:25:51;;;;;;;6.93;5.53;;;14.70;37.50;;;;;;6340226;22;19998;-88
2021/04/10 12:28:20;;;;;;;7.22;5.95;;;14.60;37.20;;;;;;6339658;22;20013;-88
2021/04/10 12:30:46;;;;;;;7.03;5.35;;;14.70;37.00;;;;;;6347038;22;19998;-90
2021/04/10 12:33:12;;;;;;;5.97;5.10;;;14.70;37.00;;;;;;6339964;22;20043;-87
2021/04/10 12:35:39;;;;;;;7.45;5.50;;;14.80;37.20;;;;;;6366214;22;20002;-87
2021/04/10 12:38:05;;;;;;;7.88;5.72;;;14.80;37.00;;;;;;6365067;22;19991;-88
2021/04/10 12:40:32;;;;;;;6.68;5.03;;;15.00;36.70;;;;;;6366701;22;20001;-88
2021/04/10 12:42:58;;;;;;;5.95;5.28;;;15.10;36.90;;;;;;6324387;22;20064;-88
2021/04/10 12:45:23;;;;;;;6.80;5.43;;;15.20;36.70;;;;;;6338881;22;20007;-88
2021/04/10 12:47:49;;;;;;;6.40;5.18;;;15.40;36.30;;;;;;6312581;22;20032;-89
2021/04/10 12:50:18;;;;;;;6.70;5.30;;;15.60;36.00;;;;;;6311740;22;20007;-89